METAR Data
IDs: Format: Raw Decoded Include TAF

Data at: 1408 UTC 11 Dec 2018

KILE 111356Z AUTO 18003KT 10SM CLR 02/M01 A3037 RMK AO2 SLP306 T00171006 FZRANO
KILE 111256Z AUTO 18004KT 10SM CLR 00/M02 A3037 RMK AO2 SLP306 T00001017 FZRANO
KILE 111156Z AUTO 00000KT 10SM CLR M01/M02 A3036 RMK AO2 SLP304 T10061022 10044 21006 58002 FZRANO
KILE 111056Z AUTO 19003KT 10SM CLR 01/M01 A3036 RMK AO2 SLP304 T00111011 FZRANO
KILE 110956Z AUTO 23004KT 10SM CLR 03/M02 A3036 RMK AO2 SLP303 T00281017
KILE 110856Z AUTO 23004KT 10SM CLR 02/M02 A3036 RMK AO2 SLP304 T00221017 58007 FZRANO
KILE 110756Z AUTO 22005KT 10SM CLR 03/M02 A3037 RMK AO2 SLP305 T00331017
KILE 110656Z AUTO 00000KT 10SM CLR 04/M01 A3039 RMK AO2 SLP311 T00391011
KILE 110556Z AUTO 21004KT 10SM CLR 04/M01 A3038 RMK AO2 SLP312 T00391011 10100 20039 401441017 50001
KILE 110456Z AUTO 18004KT 10SM CLR 04/00 A3039 RMK AO2 SLP315 T00390000
KILE 110356Z AUTO 19005KT 10SM CLR 06/00 A3038 RMK AO2 SLP309 T00560000
KILE 110256Z AUTO 19004KT 10SM CLR 06/01 A3038 RMK AO2 SLP311 T00610006 50006
KILE 110156Z AUTO 16005KT 10SM CLR 06/01 A3038 RMK AO2 SLP309 T00610006
KILE 110056Z AUTO 18004KT 10SM CLR 09/M02 A3038 RMK AO2 SLP310 T00891022
KILE 102356Z AUTO 16003KT 10SM CLR 08/00 A3036 RMK AO2 SLP305 T00780000 10144 20072 53005
KILE 102256Z AUTO 00000KT 10SM CLR 13/M04 A3035 RMK AO2 SLP302 T01331039
KILE 102156Z AUTO 31003KT 10SM CLR 14/M03 A3035 RMK AO2 SLP300 T01441028
KILE 102056Z AUTO 00000KT 10SM CLR 14/M03 A3035 RMK AO2 SLP300 T01441033 56016
KILE 101956Z AUTO 22003KT 10SM CLR 14/M03 A3036 RMK AO2 SLP302 T01391033
KILE 101856Z AUTO VRB04KT 10SM CLR 13/M03 A3037 RMK AO2 SLP308 T01331028
KILE 101756Z AUTO 28003KT 10SM CLR 11/M02 A3040 RMK AO2 SLP317 T01111017 10117 21017 58006
KILE 101656Z AUTO 30004KT 10SM CLR 09/M01 A3043 RMK AO2 SLP328 T00941006
KILE 101556Z AUTO 24003KT 10SM CLR 07/00 A3043 RMK AO2 SLP325 T00670000
KILE 101456Z AUTO 25004KT 10SM CLR 02/00 A3042 RMK AO2 SLP324 T00220000 51016 FZRANO
KILE 101356Z AUTO 25004KT 10SM CLR M01/M02 A3041 RMK AO2 SLP319 T10111022 FZRANO
KILE 101256Z AUTO 25003KT 10SM CLR M01/M02 A3039 RMK AO2 SLP316 T10061022 FZRANO
KILE 101156Z AUTO 29004KT 10SM CLR 00/M02 A3037 RMK AO2 SLP308 T00001017 10028 20000 55001 FZRANO
KILE 101056Z AUTO 32005KT 10SM CLR 01/M02 A3036 RMK AO2 SLP304 T00061022 FZRANO
KILE 100956Z AUTO 30006KT 10SM CLR 01/M02 A3037 RMK AO2 SLP306 T00111017 FZRANO
KILE 100856Z AUTO 29005KT 10SM CLR 01/M01 A3037 RMK AO2 SLP308 T00061011 56006 FZRANO
KILE 100756Z AUTO 29004KT 10SM CLR 01/M01 A3038 RMK AO2 SLP309 T00111011 FZRANO
KILE 100656Z AUTO 31005KT 10SM CLR 02/M01 A3038 RMK AO2 SLP310 T00221006 FZRANO
KILE 100556Z AUTO 32005KT 10SM CLR 03/00 A3039 RMK AO2 SLP314 T00280000 10072 20028 400890028 50005
KILE 100456Z AUTO 32005KT 10SM CLR 04/01 A3039 RMK AO2 SLP314 T00390006
KILE 100356Z AUTO 33006KT 10SM CLR 04/02 A3038 RMK AO2 SLP311 T00440017
KILE 100256Z AUTO 31005KT 10SM CLR 05/02 A3038 RMK AO2 SLP310 T00500022 53014